Dalhart Municipal Airport Dalhart US
ICAO: KDHT
IATA: DHT
Category: Medium
Scheduled Services: No

Elevation: 3991 ft
TransAlt. 18000 ft.

Airport Communications:
ASOS:134.075
ALBUQUERQUE CNTR:127.85
FORT WORTH RDO:122.2
CTAF/UNICOM:122.95

KDHT Zoom In..

If you have problems with the map follow the link
https://www.worldairports.se/pages/airport.php?
ICAO=KDHT

Runways:

(A) RW 03 length 5440 ft width 75 ft
---- / hdg 36

(B) RW 17 length 6400 ft width 75 ft
---- / hdg 171

(C) RW 21 length 5440 ft width 75 ft
---- / hdg 216

(D) RW 35 length 6400 ft width 75 ft
---- / hdg 351

Location; KDHT
Day. 18 / Time. 01.53 Zulu
* Altimeter: 29.92
* Temperature: 05° c. 41°f.
* Wind from: 100° Speed 13 kn.
Dewpoint: -10° c.
Visibility: 10 Statute Miles.
Clouds: Overcast 9000 ft.

KDHT 180153Z AUTO 10013KT 10SM OVC090 05/M10 A2992 RMK AO2 SLP145 T00501100


Wind From 100°
Speed 13 kn.

 
 
jpsmedia.com for Web Design worldairports.se 2019   terms of use